Time;durP1;ratioP1;P1;durP2;ratioP2;P2;SDS_P1;SDS_P2;PMS_P1;PMS_P2;Temp;Humidity;BMP_temperature;BMP_pressure;BME280_temperature;BME280_humidity;BME280_pressure;Samples;Min_cycle;Max_cycle;Signal;HPM_P1;HPM_P2
2021/12/06 00:01:14;;;;;;;19.87;10.90;;;;;;;2.87;73.08;100548.14;1709196;81;25892;-59
2021/12/06 00:04:05;;;;;;;22.10;11.43;;;;;;;2.90;73.07;100546.64;1754016;80;25714;-59
2021/12/06 00:06:37;;;;;;;20.52;12.05;;;;;;;2.91;73.08;100552.34;1733521;81;25886;-59
2021/12/06 00:09:08;;;;;;;21.73;12.30;;;;;;;2.92;72.99;100545.21;1722334;81;26139;-59
2021/12/06 00:11:35;;;;;;;20.02;10.70;;;;;;;2.94;72.94;100548.18;1720605;81;27475;-59
2021/12/06 00:14:04;;;;;;;19.50;10.53;;;;;;;2.99;73.04;100557.20;1722497;81;25789;-60
2021/12/06 00:16:31;;;;;;;20.02;10.88;;;;;;;3.02;73.02;100558.33;1717167;81;25679;-59
2021/12/06 00:18:57;;;;;;;18.90;10.78;;;;;;;3.02;72.94;100558.81;1737516;80;25881;-60
2021/12/06 00:21:25;;;;;;;24.18;11.35;;;;;;;3.02;72.92;100549.03;1748073;80;25909;-59
2021/12/06 00:23:53;;;;;;;19.50;11.03;;;;;;;3.03;72.83;100544.59;1759364;81;27403;-60
2021/12/06 00:26:20;;;;;;;21.23;11.48;;;;;;;3.06;72.86;100530.63;1748902;81;25470;-60
2021/12/06 00:28:55;;;;;;;19.85;10.78;;;;;;;3.14;72.86;100538.11;1740663;81;25785;-60
2021/12/06 00:31:17;;;;;;;18.30;10.43;;;;;;;3.20;72.80;100539.55;1743220;80;25831;-60
2021/12/06 00:33:44;;;;;;;24.47;11.60;;;;;;;3.21;72.55;100543.92;1719563;81;25710;-60
2021/12/06 00:36:16;;;;;;;20.88;11.43;;;;;;;3.20;72.36;100543.08;1717015;81;27484;-60
2021/12/06 00:38:40;;;;;;;21.30;11.95;;;;;;;3.18;72.07;100540.14;1700139;82;25909;-58
2021/12/06 00:41:08;;;;;;;21.80;12.90;;;;;;;3.13;71.97;100542.59;1717107;81;25657;-60
2021/12/06 00:43:35;;;;;;;27.05;13.18;;;;;;;3.10;71.93;100545.42;1733259;80;26044;-60
2021/12/06 00:46:02;;;;;;;23.75;11.93;;;;;;;3.10;71.92;100543.25;1732128;80;25930;-61
2021/12/06 00:48:29;;;;;;;27.35;13.18;;;;;;;3.06;71.82;100534.62;1750973;80;27477;-60
2021/12/06 00:50:56;;;;;;;23.60;13.65;;;;;;;3.04;71.88;100535.67;1743778;80;26368;-59
2021/12/06 00:53:23;;;;;;;23.47;12.82;;;;;;;3.05;71.82;100536.05;1750970;79;25699;-60
2021/12/06 00:55:50;;;;;;;21.93;12.82;;;;;;;3.01;71.86;100535.84;1744468;80;25871;-60
2021/12/06 00:58:17;;;;;;;22.73;14.00;;;;;;;2.97;71.86;100533.36;1750049;80;25475;-59
2021/12/06 01:00:49;;;;;;;23.57;13.10;;;;;;;2.94;71.92;100534.02;1734329;80;27488;-61
2021/12/06 01:03:27;;;;;;;23.42;13.00;;;;;;;2.92;71.90;100536.78;1740929;80;25675;-60
2021/12/06 01:05:54;;;;;;;31.15;16.30;;;;;;;2.91;72.12;100542.20;1735561;81;25763;-59
2021/12/06 01:08:23;;;;;;;32.75;15.18;;;;;;;2.88;72.36;100535.73;1749606;80;25826;-59
2021/12/06 01:10:52;;;;;;;34.48;15.20;;;;;;;2.88;72.40;100537.06;1743550;80;25808;-60
2021/12/06 01:13:21;;;;;;;37.13;17.57;;;;;;;2.89;72.60;100530.80;1717315;82;27522;-60
2021/12/06 01:15:48;;;;;;;35.58;17.75;;;;;;;2.91;72.97;100523.60;1753901;80;25915;-60
2021/12/06 01:18:18;;;;;;;38.45;18.98;;;;;;;2.90;73.12;100518.74;1747365;80;25491;-59
2021/12/06 01:20:55;;;;;;;38.02;17.90;;;;;;;2.92;73.33;100518.19;1745490;81;25804;-60
2021/12/06 01:23:20;;;;;;;35.45;17.07;;;;;;;2.93;73.27;100521.68;1735313;81;25826;-59
2021/12/06 01:26:09;;;;;;;38.95;18.48;;;;;;;2.96;73.48;100514.86;1749773;80;28150;-60
2021/12/06 01:31:09;;;;;;;39.75;17.45;;;;;;;3.05;73.41;100515.63;1740703;80;25781;-59
2021/12/06 01:34:03;;;;;;;35.10;16.50;;;;;;;3.11;73.36;100519.23;1744693;80;26163;-60
2021/12/06 01:39:12;;;;;;;32.30;15.65;;;;;;;3.20;73.34;100508.52;1743021;80;27377;-60
2021/12/06 01:41:39;;;;;;;30.57;15.38;;;;;;;3.26;73.12;100500.16;1711750;81;25858;-60
2021/12/06 01:44:11;;;;;;;29.67;14.95;;;;;;;3.29;73.08;100493.33;1736352;81;25739;-61
2021/12/06 01:46:48;;;;;;;28.67;14.83;;;;;;;3.30;72.96;100495.49;1714513;81;25803;-59
2021/12/06 01:49:17;;;;;;;27.75;14.18;;;;;;;3.32;72.91;100506.89;1708232;81;25723;-60
2021/12/06 01:51:46;;;;;;;28.73;15.15;;;;;;;3.32;72.73;100504.23;1752103;81;27480;-60
2021/12/06 01:54:16;;;;;;;30.45;15.93;;;;;;;3.33;72.57;100507.28;1747309;80;26210;-60
2021/12/06 01:56:44;;;;;;;28.12;15.00;;;;;;;3.33;72.33;100505.95;1741688;79;25721;-60
2021/12/06 01:59:13;;;;;;;37.45;16.55;;;;;;;3.31;72.20;100507.84;1746539;80;25941;-60
2021/12/06 02:01:42;;;;;;;28.10;15.60;;;;;;;3.29;72.09;100495.98;1744077;80;25812;-60
2021/12/06 02:04:10;;;;;;;32.28;15.53;;;;;;;3.27;71.98;100487.73;1733472;81;27413;-60
2021/12/06 02:06:40;;;;;;;28.83;14.20;;;;;;;3.18;71.97;100486.48;1736677;80;25864;-60
2021/12/06 02:09:12;;;;;;;30.17;13.93;;;;;;;3.11;72.09;100484.67;1749739;80;25756;-59
2021/12/06 02:11:40;;;;;;;32.83;16.90;;;;;;;3.08;72.08;100485.34;1741919;80;25838;-60
2021/12/06 02:14:26;;;;;;;29.37;16.02;;;;;;;3.05;72.14;100481.08;1747171;80;25733;-60
2021/12/06 02:19:40;;;;;;;34.65;16.57;;;;;;;3.03;72.10;100486.95;1743501;80;25809;-60
2021/12/06 02:22:12;;;;;;;30.57;16.50;;;;;;;2.98;72.09;100494.37;1749996;80;33072;-59
2021/12/06 02:24:39;;;;;;;25.60;14.65;;;;;;;2.97;72.03;100495.31;1761819;80;25814;-59
2021/12/06 02:27:11;;;;;;;31.50;16.10;;;;;;;2.98;72.24;100491.23;1767397;80;25739;-59
2021/12/06 02:29:41;;;;;;;27.80;14.00;;;;;;;3.00;72.25;100492.94;1757094;80;27457;-60
2021/12/06 02:32:11;;;;;;;29.25;15.60;;;;;;;3.02;72.41;100482.59;1751829;80;25854;-59
2021/12/06 02:34:41;;;;;;;22.82;13.45;;;;;;;3.04;72.48;100480.70;1744493;80;25763;-60
2021/12/06 02:37:10;;;;;;;29.52;14.15;;;;;;;3.08;72.64;100469.39;1717960;81;25781;-60
2021/12/06 02:39:39;;;;;;;30.50;14.43;;;;;;;3.10;72.79;100459.05;1731933;80;25866;-60
2021/12/06 02:42:11;;;;;;;26.25;14.58;;;;;;;3.17;72.92;100460.02;1747534;80;27453;-59
2021/12/06 02:44:39;;;;;;;27.05;14.13;;;;;;;3.23;72.94;100467.59;1695151;81;25889;-60
2021/12/06 02:47:07;;;;;;;28.05;13.45;;;;;;;3.28;72.93;100468.14;1760284;80;25766;-59
2021/12/06 02:49:35;;;;;;;26.57;14.35;;;;;;;3.32;72.88;100462.19;1766227;80;25781;-61
2021/12/06 02:52:06;;;;;;;33.63;15.25;;;;;;;3.36;72.76;100455.22;1749997;80;25884;-61
2021/12/06 02:54:34;;;;;;;26.77;14.03;;;;;;;3.41;72.69;100453.59;1722345;81;27568;-60
2021/12/06 02:59:36;;;;;;;34.75;17.23;;;;;;;3.42;72.54;100448.20;1760946;80;25782;-59
2021/12/06 03:02:10;;;;;;;31.55;17.55;;;;;;;3.43;72.40;100447.25;1759799;80;25766;-60
2021/12/06 03:04:40;;;;;;;34.05;17.23;;;;;;;3.44;72.32;100457.39;1753019;80;27283;-60
2021/12/06 03:07:09;;;;;;;35.70;17.35;;;;;;;3.40;72.28;100448.77;1746260;80;27184;-60
2021/12/06 03:09:40;;;;;;;37.93;18.05;;;;;;;3.35;72.11;100450.00;1754686;80;25909;-60
2021/12/06 03:12:15;;;;;;;34.45;16.85;;;;;;;3.34;72.32;100447.84;1750772;80;25453;-60
2021/12/06 03:14:50;;;;;;;32.58;16.60;;;;;;;3.33;72.33;100445.25;1756061;80;26447;-59
2021/12/06 03:17:21;;;;;;;35.58;18.35;;;;;;;3.34;72.34;100450.95;1754983;80;25715;-60
2021/12/06 03:19:50;;;;;;;34.75;18.67;;;;;;;3.32;72.22;100441.75;1751409;79;28380;-60
2021/12/06 03:22:18;;;;;;;53.63;27.22;;;;;;;3.32;72.13;100447.07;1761207;79;25468;-60
2021/12/06 03:24:48;;;;;;;49.85;23.40;;;;;;;3.31;71.92;100452.50;1759856;80;25767;-60
2021/12/06 03:27:18;;;;;;;40.28;19.77;;;;;;;3.29;71.83;100463.20;1738462;80;25894;-60
2021/12/06 03:29:46;;;;;;;40.17;18.60;;;;;;;3.28;71.96;100454.84;1746609;80;25772;-60
2021/12/06 03:32:14;;;;;;;40.43;18.12;;;;;;;3.25;71.93;100463.04;1748324;80;27463;-60
2021/12/06 03:34:41;;;;;;;29.20;16.40;;;;;;;3.21;71.90;100461.05;1750780;80;25926;-60
2021/12/06 03:37:09;;;;;;;31.07;15.98;;;;;;;3.22;71.88;100464.09;1749522;80;25665;-60
2021/12/06 03:39:42;;;;;;;33.10;17.00;;;;;;;3.20;72.02;100463.78;1754200;80;26483;-60
2021/12/06 03:42:14;;;;;;;34.90;17.57;;;;;;;3.17;72.12;100455.53;1741774;80;25869;-60
2021/12/06 03:44:41;;;;;;;31.70;14.98;;;;;;;3.16;72.35;100459.14;1756621;80;27623;-61
2021/12/06 03:47:13;;;;;;;27.27;15.30;;;;;;;3.16;72.51;100458.30;1747885;80;26173;-60
2021/12/06 03:49:42;;;;;;;31.20;16.17;;;;;;;3.19;72.81;100456.30;1718811;81;25529;-59
2021/12/06 03:52:12;;;;;;;27.60;15.20;;;;;;;3.18;72.91;100457.25;1736856;81;25863;-59
2021/12/06 03:54:41;;;;;;;33.80;16.02;;;;;;;3.22;73.04;100459.23;1729083;81;25820;-59
2021/12/06 03:57:10;;;;;;;31.02;14.33;;;;;;;3.27;73.22;100461.14;1712722;81;46779;-60
2021/12/06 03:59:37;;;;;;;27.67;14.83;;;;;;;3.32;73.22;100459.52;1761977;80;25939;-60
2021/12/06 04:02:05;;;;;;;30.62;13.78;;;;;;;3.38;73.28;100453.31;1747920;80;25810;-59
2021/12/06 04:04:32;;;;;;;27.48;14.73;;;;;;;3.41;73.29;100443.83;1748587;80;26476;-59
2021/12/06 04:07:00;;;;;;;32.13;15.93;;;;;;;3.47;73.27;100453.68;1764001;80;25814;-60
2021/12/06 04:09:29;;;;;;;32.88;16.65;;;;;;;3.49;73.26;100438.48;1753999;80;28241;-61
2021/12/06 04:11:57;;;;;;;31.15;14.83;;;;;;;3.48;73.30;100439.44;1758229;79;25636;-60
2021/12/06 04:14:24;;;;;;;31.90;14.58;;;;;;;3.53;73.47;100434.69;1753427;80;25710;-60
2021/12/06 04:16:52;;;;;;;32.38;15.03;;;;;;;3.61;73.39;100443.03;1756823;80;25792;-59
2021/12/06 04:19:20;;;;;;;25.48;13.28;;;;;;;3.67;73.38;100443.95;1749799;80;25671;-59
2021/12/06 04:21:48;;;;;;;36.23;14.50;;;;;;;3.72;73.30;100440.50;1714357;81;27491;-59
2021/12/06 04:24:16;;;;;;;30.23;14.28;;;;;;;3.72;73.14;100437.84;1741272;79;25904;-59
2021/12/06 04:26:44;;;;;;;30.80;16.90;;;;;;;3.70;72.88;100434.91;1744234;79;25863;-59
2021/12/06 04:29:12;;;;;;;33.83;15.30;;;;;;;3.72;73.18;100434.34;1747057;80;26359;-60
2021/12/06 04:31:53;;;;;;;31.10;15.78;;;;;;;3.75;73.44;100427.00;1740416;79;25957;-60
2021/12/06 04:34:23;;;;;;;45.88;19.55;;;;;;;3.80;73.37;100427.20;1741806;80;27429;-60
2021/12/06 04:36:51;;;;;;;33.08;16.55;;;;;;;3.81;73.37;100435.55;1732666;79;25775;-60
2021/12/06 04:39:20;;;;;;;40.05;19.73;;;;;;;3.85;73.38;100433.92;1745785;80;25762;-59
2021/12/06 04:41:49;;;;;;;33.13;15.53;;;;;;;3.85;73.13;100439.70;1746055;79;25786;-59
2021/12/06 04:44:18;;;;;;;34.63;16.25;;;;;;;3.82;72.79;100435.91;1751467;80;26001;-60
2021/12/06 04:46:45;;;;;;;32.35;15.35;;;;;;;3.76;72.79;100435.37;1717473;81;28501;-60
2021/12/06 04:49:13;;;;;;;33.05;16.23;;;;;;;3.76;72.88;100432.70;1716334;82;25863;-60
2021/12/06 04:51:45;;;;;;;36.55;17.23;;;;;;;3.73;72.81;100430.23;1722197;80;25854;-60
2021/12/06 04:54:15;;;;;;;39.18;15.68;;;;;;;3.68;72.44;100423.50;1748025;80;25925;-61
2021/12/06 04:56:48;;;;;;;35.55;16.85;;;;;;;3.61;72.40;100432.38;1746496;80;25687;-62
2021/12/06 04:59:32;;;;;;;30.75;15.45;;;;;;;3.58;72.56;100432.11;1753250;80;27134;-64
2021/12/06 05:02:11;;;;;;;36.98;17.42;;;;;;;3.54;72.33;100443.89;1751176;80;25704;-63
2021/12/06 05:04:47;;;;;;;32.93;16.20;;;;;;;3.50;72.57;100449.50;1727515;81;25820;-60
2021/12/06 05:07:16;;;;;;;;;;;;;;;3.48;72.74;100451.41;1739646;80;26141;-60
2021/12/06 05:09:45;;;;;;;33.38;15.18;;;;;;;3.49;73.27;100447.80;1738919;79;25937;-60
2021/12/06 05:12:17;;;;;;;36.42;18.60;;;;;;;3.48;72.96;100440.77;1715837;81;27530;-61
2021/12/06 05:14:47;;;;;;;37.25;17.92;;;;;;;3.45;73.06;100437.34;1748597;79;25819;-61
2021/12/06 05:17:15;;;;;;;42.80;20.02;;;;;;;3.44;73.05;100434.33;1687890;81;25836;-61
2021/12/06 05:19:43;;;;;;;41.80;18.05;;;;;;;3.45;73.14;100436.02;1746595;80;26440;-62
2021/12/06 05:22:10;;;;;;;33.50;14.55;;;;;;;3.45;73.20;100437.34;1751718;79;25458;-62
2021/12/06 05:24:38;;;;;;;37.90;16.67;;;;;;;3.49;73.37;100437.16;1736156;79;28219;-61
2021/12/06 05:27:05;;;;;;;31.77;15.40;;;;;;;3.45;73.65;100441.33;1748754;81;25859;-60
2021/12/06 05:29:35;;;;;;;41.05;15.65;;;;;;;3.45;73.89;100436.50;1749170;79;25475;-60
2021/12/06 05:32:05;;;;;;;30.97;13.83;;;;;;;3.47;74.03;100437.72;1752670;80;25872;-60
2021/12/06 05:34:38;;;;;;;31.73;14.30;;;;;;;3.48;74.00;100437.64;1734554;79;25784;-60
2021/12/06 05:37:10;;;;;;;30.40;13.03;;;;;;;3.45;74.02;100441.33;1745771;81;29616;-60
2021/12/06 05:39:39;;;;;;;30.23;13.80;;;;;;;3.48;74.19;100441.64;1747467;81;25950;-62
2021/12/06 05:42:11;;;;;;;25.23;13.48;;;;;;;3.52;74.14;100455.09;1742921;81;25831;-61
2021/12/06 05:44:39;;;;;;;23.52;12.98;;;;;;;3.57;74.25;100457.00;1715550;81;25832;-60
2021/12/06 05:47:06;;;;;;;26.90;13.48;;;;;;;3.65;74.26;100461.81;1743953;81;25872;-61
2021/12/06 05:49:34;;;;;;;26.97;13.05;;;;;;;3.72;74.43;100463.11;1751783;81;28316;-61
2021/12/06 05:52:01;;;;;;;29.35;12.53;;;;;;;3.82;74.47;100457.19;1723027;81;25827;-61
2021/12/06 05:54:29;;;;;;;25.95;12.45;;;;;;;3.79;73.73;100451.59;1746107;81;25777;-61
2021/12/06 05:56:56;;;;;;;26.68;13.65;;;;;;;3.73;73.64;100449.34;1749202;80;25847;-60
2021/12/06 05:59:23;;;;;;;26.80;12.75;;;;;;;3.70;73.73;100456.19;1710796;81;25816;-60
2021/12/06 06:01:53;;;;;;;28.73;13.75;;;;;;;3.71;73.96;100457.90;1714650;81;28091;-61
2021/12/06 06:04:25;;;;;;;24.47;11.85;;;;;;;3.72;73.95;100459.61;1707304;81;26253;-64
2021/12/06 06:06:52;;;;;;;30.25;13.48;;;;;;;3.75;74.00;100452.28;1718248;82;25966;-60
2021/12/06 06:09:20;;;;;;;29.45;13.98;;;;;;;3.66;73.73;100466.18;1731140;81;26609;-60
2021/12/06 06:11:47;;;;;;;27.48;13.30;;;;;;;3.68;74.04;100461.63;1758416;80;25757;-60
2021/12/06 06:14:17;;;;;;;34.48;13.58;;;;;;;3.71;74.13;100453.45;1763685;80;27437;-60
2021/12/06 06:16:48;;;;;;;30.48;12.95;;;;;;;3.72;73.72;100447.14;1724337;81;25866;-60
2021/12/06 06:19:20;;;;;;;24.52;12.68;;;;;;;3.68;73.50;100444.78;1709292;82;25868;-60
2021/12/06 06:21:48;;;;;;;29.82;14.90;;;;;;;3.63;73.57;100449.56;1755422;80;25702;-60
2021/12/06 06:24:15;;;;;;;31.52;14.55;;;;;;;3.58;73.56;100455.18;1751285;80;25832;-60
2021/12/06 06:26:42;;;;;;;29.23;13.53;;;;;;;3.58;73.84;100451.19;1759549;80;27369;-60
2021/12/06 06:29:11;;;;;;;27.42;13.43;;;;;;;3.57;73.89;100457.00;1751119;81;25927;-61
2021/12/06 06:31:39;;;;;;;29.75;13.58;;;;;;;3.54;73.99;100451.87;1701850;81;25715;-61
2021/12/06 06:34:07;;;;;;;32.83;13.62;;;;;;;3.52;73.83;100448.94;1719751;81;26863;-61
2021/12/06 06:36:35;;;;;;;27.82;13.50;;;;;;;3.47;73.68;100461.66;1716165;82;25933;-61
2021/12/06 06:39:06;;;;;;;29.00;13.90;;;;;;;3.45;74.03;100473.24;1754037;80;28135;-61
2021/12/06 06:41:35;;;;;;;30.97;13.88;;;;;;;3.44;73.95;100467.58;1717823;82;25795;-61
2021/12/06 06:44:04;;;;;;;37.30;14.60;;;;;;;3.39;74.01;100472.31;1747488;80;25887;-61
2021/12/06 06:46:32;;;;;;;32.60;15.05;;;;;;;3.37;74.33;100466.72;1730536;81;25845;-60
2021/12/06 06:48:59;;;;;;;37.08;15.00;;;;;;;3.36;74.48;100465.01;1739423;80;25522;-60
2021/12/06 06:51:27;;;;;;;32.80;15.60;;;;;;;3.38;74.76;100473.75;1753140;80;27555;-60
2021/12/06 06:53:54;;;;;;;31.93;13.93;;;;;;;3.42;75.06;100473.91;1740305;80;25830;-60
2021/12/06 06:56:21;;;;;;;35.03;15.80;;;;;;;3.42;75.23;100470.80;1749961;80;25770;-60
2021/12/06 06:58:50;;;;;;;32.80;14.45;;;;;;;3.41;76.00;100466.43;1734859;81;25815;-60
2021/12/06 07:01:18;;;;;;;38.70;14.25;;;;;;;3.38;75.58;100462.62;1728361;81;25813;-60
2021/12/06 07:03:48;;;;;;;34.45;15.30;;;;;;;3.43;75.92;100468.52;1745465;79;27533;-61
2021/12/06 07:06:15;;;;;;;29.82;14.05;;;;;;;3.48;76.06;100472.22;1730102;81;27233;-60
2021/12/06 07:08:43;;;;;;;35.38;13.18;;;;;;;3.58;76.23;100477.79;1740172;81;25735;-61
2021/12/06 07:11:09;;;;;;;35.23;14.63;;;;;;;3.67;76.30;100469.22;1733218;80;26486;-60
2021/12/06 07:13:38;;;;;;;33.63;14.83;;;;;;;3.74;76.03;100469.20;1739418;80;25755;-60
2021/12/06 07:16:07;;;;;;;44.23;18.55;;;;;;;3.76;76.12;100460.64;1745105;81;29632;-60
2021/12/06 07:18:35;;;;;;;37.30;18.12;;;;;;;3.85;76.12;100461.86;1755534;81;25810;-60
2021/12/06 07:21:02;;;;;;;36.80;15.95;;;;;;;3.93;75.93;100465.33;1753342;80;25817;-60
2021/12/06 07:23:30;;;;;;;33.45;15.05;;;;;;;4.00;75.97;100467.12;1727490;80;26367;-60
2021/12/06 07:25:57;;;;;;;34.23;15.13;;;;;;;4.04;75.72;100461.95;1743407;81;26214;-60
2021/12/06 07:28:24;;;;;;;34.75;14.98;;;;;;;4.11;75.93;100454.42;1750593;80;27492;-60
2021/12/06 07:30:51;;;;;;;38.10;16.52;;;;;;;4.13;75.39;100451.19;1754779;81;25767;-60
2021/12/06 07:33:18;;;;;;;36.05;15.88;;;;;;;4.19;75.74;100443.65;1745988;80;25835;-59
2021/12/06 07:35:45;;;;;;;35.03;15.38;;;;;;;4.25;75.69;100446.84;1753282;80;25818;-60
2021/12/06 07:38:12;;;;;;;41.77;16.45;;;;;;;4.30;75.87;100454.06;1743863;80;25781;-60
2021/12/06 07:40:40;;;;;;;39.13;17.15;;;;;;;4.30;75.39;100459.39;1748889;80;27947;-61
2021/12/06 07:43:06;;;;;;;41.95;17.45;;;;;;;4.36;75.73;100457.14;1743736;80;25799;-60
2021/12/06 07:45:34;;;;;;;40.78;16.90;;;;;;;4.45;75.67;100449.02;1730264;81;25771;-60
2021/12/06 07:48:02;;;;;;;44.35;17.12;;;;;;;4.47;75.56;100444.44;1733946;81;26385;-60
2021/12/06 07:50:29;;;;;;;43.02;19.17;;;;;;;4.50;75.37;100447.37;1756351;80;25525;-60
2021/12/06 07:52:56;;;;;;;41.77;18.42;;;;;;;4.50;75.45;100450.03;1761350;80;28179;-61
2021/12/06 07:55:26;;;;;;;43.33;18.62;;;;;;;4.53;75.51;100453.34;1755404;80;25701;-60
2021/12/06 07:57:56;;;;;;;43.35;19.42;;;;;;;4.62;75.61;100449.66;1759662;80;25758;-61
2021/12/06 08:00:25;;;;;;;45.83;18.37;;;;;;;4.64;75.32;100455.25;1755827;81;25786;-60
2021/12/06 08:02:53;;;;;;;39.90;17.65;;;;;;;4.61;75.14;100459.48;1762546;80;26008;-61
2021/12/06 08:05:32;;;;;;;48.68;20.45;;;;;;;4.56;74.83;100470.08;1747706;80;27456;-60
2021/12/06 08:08:16;;;;;;;42.03;18.37;;;;;;;4.49;74.72;100477.63;1764519;80;26014;-61
2021/12/06 08:10:48;;;;;;;45.00;17.80;;;;;;;4.49;74.80;100476.30;1755379;80;34732;-59
2021/12/06 08:13:19;;;;;;;43.85;18.70;;;;;;;4.52;74.82;100480.09;1755144;80;25826;-60
2021/12/06 08:15:50;;;;;;;42.80;17.92;;;;;;;4.54;74.57;100469.70;1752631;80;25856;-61
2021/12/06 08:18:18;;;;;;;41.90;17.17;;;;;;;4.51;74.27;100469.89;1754973;80;27417;-61
2021/12/06 08:20:47;;;;;;;48.02;17.50;;;;;;;4.46;74.30;100465.84;1745107;80;25553;-59
2021/12/06 08:23:15;;;;;;;42.80;17.87;;;;;;;4.42;74.30;100461.20;1752136;79;25858;-59
2021/12/06 08:25:46;;;;;;;35.08;16.35;;;;;;;4.39;74.19;100474.74;1753932;80;25808;-59
2021/12/06 08:28:15;;;;;;;42.55;17.67;;;;;;;4.36;74.44;100471.78;1755187;80;25690;-60
2021/12/06 08:30:43;;;;;;;39.05;17.17;;;;;;;4.33;74.35;100480.00;1719331;81;27389;-60
2021/12/06 08:33:12;;;;;;;38.08;16.30;;;;;;;4.35;74.67;100480.73;1737886;81;25787;-59
2021/12/06 08:35:48;;;;;;;36.20;16.42;;;;;;;4.38;74.75;100489.85;1757107;80;25558;-59
2021/12/06 08:38:16;;;;;;;36.55;16.37;;;;;;;4.43;74.95;100482.89;1758097;80;25811;-60
2021/12/06 08:40:45;;;;;;;44.05;15.78;;;;;;;4.51;75.34;100485.05;1752125;79;25896;-59
2021/12/06 08:43:16;;;;;;;33.58;14.73;;;;;;;4.60;75.44;100483.08;1756031;80;27482;-61
2021/12/06 08:45:47;;;;;;;38.67;16.85;;;;;;;4.68;75.43;100478.08;1782516;80;25468;-58
2021/12/06 08:48:14;;;;;;;42.05;17.37;;;;;;;4.75;75.25;100470.98;1743032;80;25782;-60
2021/12/06 08:50:41;;;;;;;42.17;18.80;;;;;;;4.77;74.90;100474.41;1752871;80;26504;-60
2021/12/06 08:53:08;;;;;;;41.50;16.37;;;;;;;4.78;74.93;100470.78;1752692;80;25953;-60
2021/12/06 08:55:35;;;;;;;37.10;15.98;;;;;;;4.85;75.01;100450.73;1758940;80;27475;-60
2021/12/06 08:58:03;;;;;;;33.25;15.83;;;;;;;4.84;74.69;100453.86;1755407;80;26124;-60
2021/12/06 09:00:35;;;;;;;34.80;15.53;;;;;;;4.85;74.83;100440.91;1755409;80;25775;-59
2021/12/06 09:03:03;;;;;;;35.43;15.72;;;;;;;4.81;74.76;100431.91;1754707;81;26522;-60
2021/12/06 09:05:35;;;;;;;39.83;16.85;;;;;;;4.77;74.96;100437.94;1776099;79;25849;-60
2021/12/06 09:08:04;;;;;;;31.62;14.70;;;;;;;4.79;75.21;100433.85;1765688;79;27492;-60
2021/12/06 09:10:32;;;;;;;36.28;16.07;;;;;;;4.84;75.19;100427.21;1772862;79;25712;-59
2021/12/06 09:13:00;;;;;;;35.90;15.55;;;;;;;4.91;75.38;100424.97;1765987;79;25844;-60
2021/12/06 09:15:28;;;;;;;35.90;14.95;;;;;;;4.96;75.27;100425.52;1770764;80;25818;-60
2021/12/06 09:17:56;;;;;;;33.88;15.25;;;;;;;5.04;75.43;100421.45;1739050;81;25478;-60
2021/12/06 09:20:28;;;;;;;31.40;13.88;;;;;;;5.03;75.07;100405.92;1742738;81;27408;-61
2021/12/06 09:22:56;;;;;;;31.35;14.03;;;;;;;5.04;75.17;100410.78;1753642;81;26073;-61
2021/12/06 09:25:24;;;;;;;35.08;16.10;;;;;;;5.05;75.21;100397.34;1738480;79;25757;-60
2021/12/06 09:27:52;;;;;;;38.58;17.48;;;;;;;5.04;74.99;100396.96;1726606;81;25800;-60
2021/12/06 09:30:24;;;;;;;52.75;18.95;;;;;;;5.05;75.04;100387.17;1751798;80;25911;-60
2021/12/06 09:32:51;;;;;;;46.85;18.48;;;;;;;5.10;75.24;100377.88;1756527;80;28139;-60
2021/12/06 09:35:24;;;;;;;41.13;17.98;;;;;;;5.15;75.05;100390.88;1750529;80;25870;-61
2021/12/06 09:37:47;;;;;;;42.93;20.60;;;;;;;5.14;74.94;100396.68;1744327;80;25715;-61
2021/12/06 09:40:15;;;;;;;50.03;19.12;;;;;;;5.17;75.04;100384.93;1750671;80;25846;-61
2021/12/06 09:42:45;;;;;;;42.93;19.20;;;;;;;5.18;74.91;100370.64;1741683;81;25715;-60
2021/12/06 09:45:16;;;;;;;50.20;22.58;;;;;;;5.16;74.75;100377.43;1735195;80;27566;-59
2021/12/06 09:47:51;;;;;;;44.50;19.75;;;;;;;5.17;74.72;100369.80;1741223;79;25793;-59
2021/12/06 09:50:14;;;;;;;48.63;20.30;;;;;;;5.20;74.70;100368.72;1733076;81;25836;-59
2021/12/06 09:52:41;;;;;;;45.23;19.67;;;;;;;5.22;74.37;100360.59;1751847;80;26934;-59
2021/12/06 09:55:09;;;;;;;48.55;19.87;;;;;;;5.24;74.45;100357.34;1733542;80;25787;-60
2021/12/06 09:57:36;;;;;;;42.73;18.98;;;;;;;5.32;74.49;100365.17;1695873;83;27482;-60
2021/12/06 10:00:07;;;;;;;40.38;19.57;;;;;;;5.40;74.33;100366.42;1736545;80;25837;-62
2021/12/06 10:02:34;;;;;;;45.50;20.52;;;;;;;5.47;74.07;100360.99;1750951;80;25821;-60
2021/12/06 10:05:03;;;;;;;44.50;19.92;;;;;;;5.52;74.10;100346.81;1761388;80;26080;-61
2021/12/06 10:07:31;;;;;;;41.68;17.95;;;;;;;5.57;74.00;100346.02;1743036;80;25782;-60
2021/12/06 10:09:59;;;;;;;40.95;18.50;;;;;;;5.60;74.00;100344.42;1773330;79;28114;-61
2021/12/06 10:12:29;;;;;;;40.20;17.42;;;;;;;5.56;73.77;100353.64;1755966;80;25865;-60
2021/12/06 10:14:56;;;;;;;33.85;16.42;;;;;;;5.54;74.04;100356.06;1744916;79;25759;-60
2021/12/06 10:17:25;;;;;;;43.05;17.92;;;;;;;5.49;74.45;100350.57;1709584;82;25753;-59
2021/12/06 10:19:52;;;;;;;40.48;17.57;;;;;;;5.43;74.42;100352.37;1763440;78;26500;-59
2021/12/06 10:22:21;;;;;;;36.33;16.75;;;;;;;5.41;74.75;100348.95;1739723;80;27559;-59
2021/12/06 10:24:55;;;;;;;44.60;16.67;;;;;;;5.37;74.85;100341.29;1750631;81;25872;-61
2021/12/06 10:27:24;;;;;;;38.75;17.07;;;;;;;5.35;75.00;100353.88;1754319;81;25801;-60
2021/12/06 10:30:03;;;;;;;29.40;15.25;;;;;;;5.35;74.89;100340.08;1736036;81;25803;-58
2021/12/06 10:32:36;;;;;;;35.13;15.63;;;;;;;5.42;75.25;100333.82;1738545;80;25762;-60
2021/12/06 10:35:11;;;;;;;31.17;14.25;;;;;;;5.53;75.39;100325.84;1747790;80;27406;-60
2021/12/06 10:37:45;;;;;;;38.20;16.15;;;;;;;5.64;75.35;100329.06;1769065;79;25927;-61
2021/12/06 10:40:15;;;;;;;45.17;19.27;;;;;;;5.73;75.23;100335.05;1767933;79;25929;-60
2021/12/06 10:42:45;;;;;;;40.08;20.65;;;;;;;5.85;75.08;100334.59;1758741;79;25859;-60
2021/12/06 10:45:17;;;;;;;46.68;20.15;;;;;;;5.98;75.12;100337.64;1754244;80;26415;-60
2021/12/06 10:48:06;;;;;;;41.90;17.70;;;;;;;6.04;74.94;100331.89;1747315;81;27479;-59
2021/12/06 10:50:35;;;;;;;38.13;18.73;;;;;;;6.03;74.45;100351.05;1750325;81;25731;-60
2021/12/06 10:53:04;;;;;;;38.20;18.48;;;;;;;5.98;74.37;100346.99;1746971;81;25849;-60
2021/12/06 10:55:34;;;;;;;46.50;19.87;;;;;;;5.93;74.28;100348.67;1719849;81;26920;-62
2021/12/06 10:58:06;;;;;;;35.00;17.10;;;;;;;5.91;74.37;100334.12;1762722;78;25808;-59
2021/12/06 11:00:41;;;;;;;39.13;18.25;;;;;;;5.89;74.32;100330.70;1754170;80;26796;-60
2021/12/06 11:03:31;;;;;;;45.92;21.00;;;;;;;5.85;74.32;100326.59;1748442;80;25680;-60
2021/12/06 11:06:07;;;;;;;35.85;19.48;;;;;;;5.82;74.34;100325.47;1754599;79;25858;-60
2021/12/06 11:08:37;;;;;;;47.48;20.85;;;;;;;5.85;74.36;100326.59;1763478;79;25763;-60
2021/12/06 11:11:09;;;;;;;37.40;18.07;;;;;;;5.85;74.44;100309.23;1751599;80;25894;-59
2021/12/06 11:13:41;;;;;;;37.70;18.70;;;;;;;5.80;74.03;100308.25;1744225;80;27572;-60
2021/12/06 11:16:21;;;;;;;35.45;17.05;;;;;;;5.75;74.08;100308.23;1721959;81;25971;-60
2021/12/06 11:19:05;;;;;;;38.20;18.37;;;;;;;5.72;74.07;100299.11;1753332;79;25854;-60
2021/12/06 11:21:38;;;;;;;39.88;18.82;;;;;;;5.62;74.04;100293.13;1764931;80;26914;-60
2021/12/06 11:24:15;;;;;;;41.30;20.07;;;;;;;5.55;74.18;100302.58;1753747;80;25516;-60
2021/12/06 11:26:56;;;;;;;38.78;18.02;;;;;;;5.55;74.67;100307.91;1742683;80;27509;-60
2021/12/06 11:29:28;;;;;;;43.92;19.73;;;;;;;5.57;74.78;100301.11;1753854;80;27241;-60
2021/12/06 11:32:19;;;;;;;39.70;19.35;;;;;;;5.62;74.92;100278.95;1750093;80;25537;-61
2021/12/06 11:34:54;;;;;;;39.80;19.92;;;;;;;5.65;74.85;100278.70;1753736;80;26868;-60
2021/12/06 11:37:37;;;;;;;37.65;17.95;;;;;;;5.67;74.49;100274.11;1740228;80;26379;-60
2021/12/06 11:40:26;;;;;;;43.23;21.73;;;;;;;5.69;74.36;100294.86;1740381;80;27463;-60